createdAt,value
2018-02-02T00:01:24.431Z,16.90
2018-02-02T00:03:50.744Z,16.17
2018-02-02T00:06:17.036Z,18.20
2018-02-02T00:08:43.298Z,16.53
2018-02-02T00:11:09.607Z,18.23
2018-02-02T00:13:35.898Z,14.53
2018-02-02T00:16:02.213Z,20.07
2018-02-02T00:18:28.488Z,17.00
2018-02-02T00:20:55.074Z,17.97
2018-02-02T00:23:21.384Z,15.53
2018-02-02T00:25:48.381Z,15.23
2018-02-02T00:28:14.681Z,14.97
2018-02-02T00:30:40.965Z,17.60
2018-02-02T00:33:07.259Z,17.40
2018-02-02T00:35:33.527Z,14.97
2018-02-02T00:37:59.817Z,18.37
2018-02-02T00:40:26.121Z,16.80
2018-02-02T00:42:52.416Z,17.90
2018-02-02T00:45:18.697Z,17.00
2018-02-02T00:47:44.982Z,16.47
2018-02-02T00:50:12.021Z,20.40
2018-02-02T00:52:39.067Z,17.47
2018-02-02T00:55:05.408Z,19.37
2018-02-02T00:57:32.439Z,20.87
2018-02-02T00:59:58.719Z,15.73
2018-02-02T01:02:25.016Z,17.80
2018-02-02T01:04:52.052Z,20.73
2018-02-02T01:07:18.357Z,17.90
2018-02-02T01:09:44.652Z,21.27
2018-02-02T01:12:11.186Z,16.77
2018-02-02T01:14:37.510Z,23.93
2018-02-02T01:17:03.789Z,18.70
2018-02-02T01:19:30.077Z,19.83
2018-02-02T01:21:56.380Z,21.57
2018-02-02T01:24:23.446Z,21.07
2018-02-02T01:26:49.745Z,17.90
2018-02-02T01:29:16.784Z,20.37
2018-02-02T01:31:43.070Z,19.90
2018-02-02T01:34:09.373Z,21.27
2018-02-02T01:36:36.381Z,20.30
2018-02-02T01:39:02.706Z,19.80
2018-02-02T01:41:30.481Z,21.30
2018-02-02T01:43:56.770Z,22.40
2018-02-02T01:46:23.050Z,22.40
2018-02-02T01:48:49.329Z,22.87
2018-02-02T01:51:15.667Z,21.50
2018-02-02T01:53:41.978Z,21.73
2018-02-02T01:56:08.303Z,24.70
2018-02-02T01:58:34.585Z,22.80
2018-02-02T02:01:01.645Z,20.80
2018-02-02T02:03:28.671Z,25.97
2018-02-02T02:05:55.308Z,26.53
2018-02-02T02:08:22.373Z,23.10
2018-02-02T02:10:48.697Z,20.93
2018-02-02T02:13:16.487Z,21.33
2018-02-02T02:15:43.523Z,25.93
2018-02-02T02:18:10.554Z,20.17
2018-02-02T02:20:36.839Z,21.80
2018-02-02T02:23:03.108Z,24.50
2018-02-02T02:25:29.697Z,22.47
2018-02-02T02:27:55.966Z,22.67
2018-02-02T02:30:22.265Z,27.03
2018-02-02T02:32:48.552Z,21.40
2018-02-02T02:35:15.612Z,23.97
2018-02-02T02:37:42.626Z,22.50
2018-02-02T02:40:08.928Z,25.00
2018-02-02T02:42:35.209Z,24.63
2018-02-02T02:45:02.253Z,24.40
2018-02-02T02:47:29.291Z,21.23
2018-02-02T02:49:55.577Z,22.97
2018-02-02T02:52:21.909Z,24.93
2018-02-02T02:54:48.527Z,22.40
2018-02-02T02:57:14.861Z,24.40
2018-02-02T02:59:41.145Z,23.70
2018-02-02T03:02:07.446Z,22.87
2018-02-02T03:04:33.739Z,23.23
2018-02-02T03:07:00.088Z,24.83
2018-02-02T03:09:26.376Z,23.83
2018-02-02T03:11:53.426Z,20.30
2018-02-02T03:14:20.456Z,23.23
2018-02-02T03:16:46.830Z,20.63
2018-02-02T03:19:13.118Z,24.97
2018-02-02T03:21:40.180Z,20.60
2018-02-02T03:24:07.208Z,20.43
2018-02-02T03:26:33.513Z,23.53
2018-02-02T03:28:59.793Z,25.87
2018-02-02T03:31:26.832Z,21.40
2018-02-02T03:33:53.867Z,26.53
2018-02-02T03:36:20.169Z,22.60
2018-02-02T03:38:46.443Z,22.27
2018-02-02T03:41:13.470Z,24.00
2018-02-02T03:43:39.759Z,23.87
2018-02-02T03:46:06.048Z,22.43
2018-02-02T03:48:32.340Z,24.47
2018-02-02T03:50:58.613Z,24.40
2018-02-02T03:53:25.661Z,24.13
2018-02-02T03:55:51.968Z,30.03
2018-02-02T03:58:19.008Z,28.00
2018-02-02T04:00:45.285Z,29.77
2018-02-02T04:03:11.588Z,22.60
2018-02-02T04:05:38.621Z,26.07
2018-02-02T04:08:05.657Z,24.27
2018-02-02T04:10:31.938Z,29.50
2018-02-02T04:12:58.226Z,24.13
2018-02-02T04:15:25.285Z,24.20
2018-02-02T04:17:52.329Z,22.80
2018-02-02T04:20:19.356Z,22.00
2018-02-02T04:22:45.652Z,25.00
2018-02-02T04:25:11.945Z,24.07
2018-02-02T04:27:38.302Z,29.93
2018-02-02T04:30:04.597Z,23.40
2018-02-02T04:32:31.629Z,27.20
2018-02-02T04:35:15.764Z,23.43
2018-02-02T04:37:42.094Z,24.47
2018-02-02T04:40:08.392Z,26.10
2018-02-02T04:42:34.723Z,26.63
2018-02-02T04:45:01.053Z,28.67
2018-02-02T04:47:27.355Z,22.60
2018-02-02T04:49:53.645Z,24.93
2018-02-02T04:52:19.928Z,25.90
2018-02-02T04:54:46.234Z,23.23
2018-02-02T04:57:13.272Z,23.27
2018-02-02T04:59:40.305Z,24.30
2018-02-02T05:02:06.588Z,22.00
2018-02-02T05:04:32.938Z,21.03
2018-02-02T05:06:59.196Z,22.20
2018-02-02T05:09:25.491Z,21.30
2018-02-02T05:11:51.792Z,22.03
2018-02-02T05:14:18.091Z,22.00
2018-02-02T05:16:44.367Z,19.70
2018-02-02T05:19:10.681Z,18.60
2018-02-02T05:21:36.948Z,18.57
2018-02-02T05:24:03.229Z,18.87
2018-02-02T05:26:30.244Z,19.83
2018-02-02T05:28:56.558Z,22.30
2018-02-02T05:31:22.844Z,23.03
2018-02-02T05:33:49.134Z,21.57
2018-02-02T05:36:15.415Z,21.47
2018-02-02T05:38:41.696Z,21.83
2018-02-02T05:41:07.997Z,19.50
2018-02-02T05:43:34.257Z,21.97
2018-02-02T05:46:00.559Z,23.03
2018-02-02T05:48:26.848Z,24.93
2018-02-02T05:50:53.881Z,20.87
2018-02-02T05:53:20.887Z,20.10
2018-02-02T05:55:47.189Z,21.30
2018-02-02T05:58:13.444Z,21.07
2018-02-02T06:00:39.764Z,20.93
2018-02-02T06:03:06.049Z,20.43
2018-02-02T06:05:33.090Z,21.70
2018-02-02T06:08:00.097Z,22.17
2018-02-02T06:10:26.397Z,22.90
2018-02-02T06:12:52.657Z,22.17
2018-02-02T06:15:18.943Z,21.07
2018-02-02T06:17:45.245Z,21.30
2018-02-02T06:20:12.288Z,21.57
2018-02-02T06:22:38.578Z,24.83
2018-02-02T06:25:04.873Z,22.43
2018-02-02T06:27:31.901Z,24.27
2018-02-02T06:29:58.927Z,23.93
2018-02-02T06:32:25.240Z,23.60
2018-02-02T06:34:51.536Z,19.23
2018-02-02T06:37:17.820Z,20.10
2018-02-02T06:39:44.112Z,24.80
2018-02-02T06:42:10.441Z,19.33
2018-02-02T06:44:36.713Z,21.60
2018-02-02T06:47:03.028Z,22.50
2018-02-02T06:49:29.306Z,22.00
2018-02-02T06:51:55.602Z,18.80
2018-02-02T06:54:21.884Z,20.33
2018-02-02T06:56:48.177Z,17.53
2018-02-02T06:59:15.189Z,19.20
2018-02-02T07:01:41.698Z,18.93
2018-02-02T07:04:07.986Z,15.00
2018-02-02T07:06:35.052Z,18.17
2018-02-02T07:09:01.343Z,18.30
2018-02-02T07:11:28.400Z,16.57
2018-02-02T07:13:55.462Z,20.83
2018-02-02T07:16:21.788Z,19.10
2018-02-02T07:18:48.825Z,15.97
2018-02-02T07:21:15.881Z,16.03
2018-02-02T07:23:42.203Z,15.80
2018-02-02T07:26:08.496Z,15.43
2018-02-02T07:28:34.787Z,16.70
2018-02-02T07:31:01.801Z,17.17
2018-02-02T07:33:28.117Z,16.53
2018-02-02T07:35:54.400Z,18.07
2018-02-02T07:38:20.696Z,16.80
2018-02-02T07:40:46.982Z,14.80
2018-02-02T07:43:13.248Z,17.43
2018-02-02T07:45:40.280Z,16.73
2018-02-02T07:48:06.588Z,18.17
2018-02-02T07:50:32.905Z,14.43
2018-02-02T07:52:59.233Z,16.40
2018-02-02T07:55:25.548Z,14.57
2018-02-02T07:57:51.835Z,15.43
2018-02-02T08:00:18.169Z,15.23
2018-02-02T08:02:45.208Z,18.43
2018-02-02T08:05:11.518Z,14.40
2018-02-02T08:07:37.813Z,15.57
2018-02-02T08:10:04.094Z,15.07
2018-02-02T08:12:30.363Z,15.30
2018-02-02T08:14:56.667Z,15.33
2018-02-02T08:17:22.959Z,15.17
2018-02-02T08:19:49.248Z,15.23
2018-02-02T08:22:16.273Z,15.03
2018-02-02T08:24:43.325Z,14.77
2018-02-02T08:27:10.355Z,17.47
2018-02-02T08:29:36.643Z,15.97
2018-02-02T08:32:02.928Z,18.23
2018-02-02T08:34:29.977Z,15.17
2018-02-02T08:36:57.009Z,13.90
2018-02-02T08:39:23.329Z,16.70
2018-02-02T08:41:49.602Z,18.27
2018-02-02T08:44:15.885Z,16.37
2018-02-02T08:46:42.208Z,15.40
2018-02-02T08:49:08.490Z,15.40
2018-02-02T08:51:35.524Z,14.53
2018-02-02T08:54:02.569Z,15.20
2018-02-02T08:56:29.624Z,16.10
2018-02-02T08:58:56.675Z,14.83
2018-02-02T09:01:29.919Z,14.90
2018-02-02T09:03:56.225Z,17.63
2018-02-02T09:06:22.857Z,14.73
2018-02-02T09:08:49.146Z,13.83
2018-02-02T09:11:15.443Z,14.87
2018-02-02T09:13:41.727Z,14.27
2018-02-02T09:16:08.879Z,13.50
2018-02-02T09:18:35.165Z,16.10
2018-02-02T09:21:01.450Z,16.10
2018-02-02T09:23:27.732Z,14.10
2018-02-02T09:25:54.042Z,12.77
2018-02-02T09:28:20.366Z,13.33
2018-02-02T09:30:46.651Z,14.60
2018-02-02T09:33:13.696Z,13.20
2018-02-02T09:35:39.991Z,14.50
2018-02-02T09:38:07.776Z,15.67
2018-02-02T09:40:34.075Z,14.13
2018-02-02T09:43:00.475Z,15.40
2018-02-02T09:45:26.744Z,14.50
2018-02-02T09:47:53.042Z,11.87
2018-02-02T09:50:19.309Z,15.17
2018-02-02T09:52:45.600Z,13.33
2018-02-02T09:55:11.863Z,13.03
2018-02-02T09:57:38.213Z,15.63
2018-02-02T10:00:05.270Z,13.30
2018-02-02T10:02:32.332Z,14.40
2018-02-02T10:04:58.622Z,14.07
2018-02-02T10:07:24.918Z,14.83
2018-02-02T10:09:51.197Z,14.30
2018-02-02T10:12:18.243Z,14.03
2018-02-02T10:14:44.526Z,11.67
2018-02-02T10:17:10.792Z,13.07
2018-02-02T10:19:37.887Z,11.50
2018-02-02T10:22:04.152Z,11.80
2018-02-02T10:24:30.417Z,13.13
2018-02-02T10:26:57.448Z,12.27
2018-02-02T10:29:23.732Z,15.23
2018-02-02T10:31:50.008Z,13.40
2018-02-02T10:34:16.306Z,11.40
2018-02-02T10:36:42.592Z,12.67
2018-02-02T10:39:09.689Z,11.20
2018-02-02T10:41:35.999Z,14.40
2018-02-02T10:44:02.295Z,10.17
2018-02-02T10:46:29.325Z,10.80
2018-02-02T10:48:56.363Z,11.60
2018-02-02T10:51:22.668Z,12.83
2018-02-02T10:53:48.962Z,11.30
2018-02-02T10:56:15.246Z,11.73
2018-02-02T10:58:41.531Z,11.40
2018-02-02T11:01:13.942Z,10.53
2018-02-02T11:03:46.393Z,13.57
2018-02-02T11:06:12.684Z,11.90
2018-02-02T11:08:39.781Z,11.33
2018-02-02T11:11:06.114Z,11.10
2018-02-02T11:13:32.374Z,12.97
2018-02-02T11:15:59.449Z,10.87
2018-02-02T11:18:26.459Z,11.27
2018-02-02T11:20:52.765Z,12.70
2018-02-02T11:23:19.025Z,10.53
2018-02-02T11:25:45.308Z,10.90
2018-02-02T11:28:11.715Z,10.37
2018-02-02T11:30:38.728Z,11.40
2018-02-02T11:33:05.022Z,11.27
2018-02-02T11:35:31.316Z,12.17
2018-02-02T11:37:58.381Z,10.83
2018-02-02T11:40:24.688Z,10.80
2018-02-02T11:42:51.717Z,10.20
2018-02-02T11:45:18.032Z,10.77
2018-02-02T11:47:44.342Z,11.03
2018-02-02T11:50:10.625Z,12.87
2018-02-02T11:52:37.660Z,11.20
2018-02-02T11:55:03.975Z,11.67
2018-02-02T11:57:30.309Z,11.87
2018-02-02T11:59:56.596Z,10.30
2018-02-02T12:02:22.899Z,11.10
2018-02-02T12:04:49.226Z,11.40
2018-02-02T12:07:15.520Z,9.80
2018-02-02T12:09:41.821Z,11.07
2018-02-02T12:12:08.125Z,10.57
2018-02-02T12:14:34.412Z,10.33
2018-02-02T12:17:00.750Z,10.47
2018-02-02T12:19:27.797Z,9.70
2018-02-02T12:21:56.984Z,9.97
2018-02-02T12:24:39.125Z,9.70
2018-02-02T12:27:11.656Z,11.40
2018-02-02T12:29:44.212Z,9.67
2018-02-02T12:32:15.444Z,10.50
2018-02-02T12:34:46.627Z,10.10
2018-02-02T12:37:13.688Z,10.13
2018-02-02T12:39:40.730Z,10.17
2018-02-02T12:42:07.785Z,10.53
2018-02-02T12:44:34.825Z,15.93
2018-02-02T12:47:01.120Z,10.53
2018-02-02T12:49:30.256Z,10.30
2018-02-02T12:51:56.592Z,12.40
2018-02-02T12:54:23.618Z,10.43
2018-02-02T12:56:49.917Z,9.83
2018-02-02T12:59:16.215Z,10.57
2018-02-02T13:01:42.519Z,10.93
2018-02-02T13:04:09.550Z,10.30
2018-02-02T13:06:35.844Z,11.33
2018-02-02T13:09:02.220Z,11.30
2018-02-02T13:11:29.272Z,11.67
2018-02-02T13:13:55.590Z,10.50
2018-02-02T13:16:21.884Z,11.70
2018-02-02T13:18:48.192Z,9.93
2018-02-02T13:21:14.488Z,12.57
2018-02-02T13:23:40.797Z,15.30
2018-02-02T13:26:07.088Z,11.57
2018-02-02T13:28:33.405Z,10.30
2018-02-02T13:30:59.692Z,10.40
2018-02-02T13:33:26.005Z,11.27
2018-02-02T13:35:52.325Z,12.23
2018-02-02T13:38:18.954Z,11.57
2018-02-02T13:40:45.245Z,10.63
2018-02-02T13:43:12.269Z,11.53
2018-02-02T13:45:38.553Z,11.67
2018-02-02T13:48:04.933Z,11.70
2018-02-02T13:50:31.243Z,11.73
2018-02-02T13:52:57.526Z,11.03
2018-02-02T13:55:23.809Z,10.67
2018-02-02T13:57:50.102Z,10.87
2018-02-02T14:00:16.397Z,10.67
2018-02-02T14:02:43.431Z,11.10
2018-02-02T14:05:09.747Z,10.90
2018-02-02T14:07:36.096Z,10.37
2018-02-02T14:10:03.195Z,10.20
2018-02-02T14:12:29.489Z,11.20
2018-02-02T14:14:55.804Z,11.60
2018-02-02T14:17:22.091Z,10.90
2018-02-02T14:19:48.433Z,11.00
2018-02-02T14:22:14.720Z,11.53
2018-02-02T14:24:41.038Z,9.93
2018-02-02T14:27:08.064Z,11.50
2018-02-02T14:29:34.344Z,12.93
2018-02-02T14:32:00.644Z,10.40
2018-02-02T14:34:27.679Z,10.50
2018-02-02T14:36:54.707Z,10.73
2018-02-02T14:39:20.992Z,12.20
2018-02-02T14:41:47.271Z,11.50
2018-02-02T14:44:13.579Z,10.73
2018-02-02T14:46:39.862Z,11.30
2018-02-02T14:49:06.879Z,11.30
2018-02-02T14:51:33.156Z,11.30
2018-02-02T14:53:59.441Z,11.73
2018-02-02T14:56:25.716Z,12.80
2018-02-02T14:58:51.994Z,12.10
2018-02-02T15:01:18.576Z,12.30
2018-02-02T15:03:44.854Z,12.50
2018-02-02T15:06:11.160Z,11.73
2018-02-02T15:08:37.429Z,13.10
2018-02-02T15:11:03.714Z,10.93
2018-02-02T15:13:29.988Z,10.87
2018-02-02T15:15:56.285Z,10.50
2018-02-02T15:18:22.590Z,11.73
2018-02-02T15:20:48.876Z,11.27
2018-02-02T15:23:17.050Z,11.27
2018-02-02T15:25:44.074Z,10.57
2018-02-02T15:28:10.362Z,10.30
2018-02-02T15:30:36.664Z,11.00
2018-02-02T15:33:03.697Z,10.60
2018-02-02T15:35:29.990Z,10.23
2018-02-02T15:37:56.280Z,10.70
2018-02-02T15:40:23.334Z,11.13
2018-02-02T15:42:49.634Z,12.20
2018-02-02T15:45:16.692Z,11.90
2018-02-02T15:47:43.742Z,11.10
2018-02-02T15:50:10.796Z,12.00
2018-02-02T15:52:37.840Z,12.07
2018-02-02T15:55:04.907Z,11.40
2018-02-02T15:57:31.233Z,11.50
2018-02-02T15:59:57.529Z,12.00
2018-02-02T16:02:23.815Z,11.97
2018-02-02T16:04:50.088Z,11.40
2018-02-02T16:07:16.389Z,13.10
2018-02-02T16:09:42.691Z,12.67
2018-02-02T16:12:08.997Z,13.27
2018-02-02T16:14:36.024Z,11.47
2018-02-02T16:17:02.332Z,12.27
2018-02-02T16:19:28.593Z,11.80
2018-02-02T16:21:55.632Z,12.30
2018-02-02T16:24:21.913Z,12.30
2018-02-02T16:26:48.205Z,14.20
2018-02-02T16:29:15.235Z,14.47
2018-02-02T16:31:41.539Z,13.40
2018-02-02T16:34:07.823Z,13.20
2018-02-02T16:36:34.859Z,13.10
2018-02-02T16:39:01.923Z,12.97
2018-02-02T16:41:28.240Z,13.47
2018-02-02T16:43:55.293Z,12.93
2018-02-02T16:46:22.394Z,15.93
2018-02-02T16:48:48.701Z,19.10
2018-02-02T16:51:14.994Z,16.07
2018-02-02T16:53:42.035Z,18.40
2018-02-02T16:56:09.090Z,16.00
2018-02-02T16:58:38.066Z,13.93
2018-02-02T17:01:05.121Z,14.83
2018-02-02T17:03:32.169Z,16.70
2018-02-02T17:05:59.233Z,13.50
2018-02-02T17:08:25.568Z,13.73
2018-02-02T17:10:51.892Z,14.67
2018-02-02T17:13:18.212Z,13.93
2018-02-02T17:15:45.249Z,15.57
2018-02-02T17:18:12.309Z,14.70
2018-02-02T17:20:39.320Z,14.60
2018-02-02T17:23:05.626Z,15.10
2018-02-02T17:25:31.904Z,15.93
2018-02-02T17:27:58.941Z,14.47
2018-02-02T17:30:25.230Z,15.87
2018-02-02T17:32:51.517Z,15.20
2018-02-02T17:35:18.537Z,13.87
2018-02-02T17:37:44.828Z,14.83
2018-02-02T17:40:11.115Z,16.53
2018-02-02T17:42:38.148Z,16.00
2018-02-02T17:45:04.437Z,15.30
2018-02-02T17:47:30.725Z,15.07
2018-02-02T17:49:57.043Z,15.03
2018-02-02T17:52:23.312Z,14.93
2018-02-02T17:54:49.620Z,14.87
2018-02-02T17:57:16.656Z,15.30
2018-02-02T17:59:42.952Z,15.70
2018-02-02T18:02:09.244Z,15.73
2018-02-02T18:04:35.573Z,15.67
2018-02-02T18:07:01.872Z,15.07
2018-02-02T18:09:28.324Z,16.40
2018-02-02T18:11:54.605Z,15.00
2018-02-02T18:14:20.905Z,15.77
2018-02-02T18:16:47.207Z,15.30
2018-02-02T18:19:14.264Z,16.80
2018-02-02T18:21:41.289Z,15.60
2018-02-02T18:24:07.590Z,14.80
2018-02-02T18:26:33.856Z,14.97
2018-02-02T18:29:00.897Z,15.13
2018-02-02T18:31:27.920Z,16.47
2018-02-02T18:33:54.233Z,17.17
2018-02-02T18:36:20.511Z,15.80
2018-02-02T18:38:47.572Z,15.97
2018-02-02T18:41:13.858Z,14.90
2018-02-02T18:43:40.131Z,15.43
2018-02-02T18:46:06.447Z,14.87
2018-02-02T18:48:33.482Z,15.10
2018-02-02T18:51:00.558Z,15.13
2018-02-02T18:53:26.862Z,15.23
2018-02-02T18:55:53.910Z,16.73
2018-02-02T18:58:20.954Z,16.77
2018-02-02T19:00:47.266Z,16.83
2018-02-02T19:03:13.620Z,18.00
2018-02-02T19:05:40.693Z,21.03
2018-02-02T19:08:06.999Z,17.13
2018-02-02T19:10:34.048Z,17.67
2018-02-02T19:13:01.067Z,17.20
2018-02-02T19:15:27.361Z,18.47
2018-02-02T19:17:53.644Z,19.30
2018-02-02T19:20:20.700Z,18.63
2018-02-02T19:22:46.995Z,16.67
2018-02-02T19:25:13.293Z,18.00
2018-02-02T19:27:39.611Z,19.73
2018-02-02T19:30:06.154Z,18.47
2018-02-02T19:32:32.464Z,19.53
2018-02-02T19:34:58.780Z,18.80
2018-02-02T19:37:25.118Z,17.90
2018-02-02T19:39:52.215Z,18.77
2018-02-02T19:42:18.566Z,21.97
2018-02-02T19:44:44.891Z,18.57
2018-02-02T19:47:11.193Z,19.73
2018-02-02T19:49:37.541Z,21.40
2018-02-02T19:52:03.944Z,20.03
2018-02-02T19:54:30.243Z,21.63
2018-02-02T19:57:01.113Z,21.80
2018-02-02T19:59:27.450Z,20.70
2018-02-02T20:01:53.743Z,20.80
2018-02-02T20:04:20.040Z,20.23
2018-02-02T20:06:47.157Z,17.67
2018-02-02T20:09:13.481Z,17.60
2018-02-02T20:11:39.772Z,18.67
2018-02-02T20:14:06.987Z,19.50
2018-02-02T20:16:33.330Z,18.00
2018-02-02T20:18:59.694Z,18.97
2018-02-02T20:21:26.009Z,19.47
2018-02-02T20:23:52.336Z,22.17
2018-02-02T20:26:18.691Z,20.80
2018-02-02T20:28:45.037Z,22.70
2018-02-02T20:31:11.426Z,20.90
2018-02-02T20:33:38.600Z,21.03
2018-02-02T20:36:05.700Z,21.17
2018-02-02T20:38:32.048Z,21.50
2018-02-02T20:40:59.111Z,22.47
2018-02-02T20:43:25.509Z,24.57
2018-02-02T20:45:51.812Z,22.00
2018-02-02T20:48:18.148Z,23.77
2018-02-02T20:50:44.471Z,23.83
2018-02-02T20:53:10.777Z,25.17
2018-02-02T20:55:37.822Z,26.10
2018-02-02T20:58:04.930Z,25.87
2018-02-02T21:00:31.236Z,24.77
2018-02-02T21:02:57.550Z,24.40
2018-02-02T21:05:24.819Z,27.93
2018-02-02T21:07:51.171Z,24.10
2018-02-02T21:10:17.464Z,26.77
2018-02-02T21:12:43.796Z,25.03
2018-02-02T21:15:10.106Z,26.73
2018-02-02T21:17:36.416Z,25.57
2018-02-02T21:20:02.805Z,27.70
2018-02-02T21:22:29.103Z,25.37
2018-02-02T21:24:56.138Z,29.63
2018-02-02T21:27:23.181Z,36.17
2018-02-02T21:29:50.213Z,31.60
2018-02-02T21:32:16.530Z,28.60
2018-02-02T21:34:42.874Z,25.30
2018-02-02T21:37:09.177Z,28.20
2018-02-02T21:39:35.550Z,26.67
2018-02-02T21:42:02.615Z,26.37
2018-02-02T21:44:28.959Z,24.50
2018-02-02T21:46:55.408Z,24.40
2018-02-02T21:49:21.702Z,26.97
2018-02-02T21:51:48.750Z,25.77
2018-02-02T21:54:15.770Z,22.50
2018-02-02T21:56:42.128Z,26.10
2018-02-02T21:59:09.183Z,25.67
2018-02-02T22:01:35.524Z,25.87
2018-02-02T22:04:01.918Z,26.23
2018-02-02T22:06:29.031Z,24.60
2018-02-02T22:08:55.333Z,27.97
2018-02-02T22:11:21.615Z,26.80
2018-02-02T22:13:47.923Z,27.67
2018-02-02T22:16:14.306Z,25.80
2018-02-02T22:18:41.327Z,26.37
2018-02-02T22:21:07.607Z,24.70
2018-02-02T22:23:33.945Z,26.53
2018-02-02T22:26:00.241Z,26.00
2018-02-02T22:28:27.280Z,27.87
2018-02-02T22:30:53.614Z,30.63
2018-02-02T22:33:20.640Z,26.07
2018-02-02T22:35:47.024Z,29.00
2018-02-02T22:38:13.327Z,28.47
2018-02-02T22:40:40.361Z,27.03
2018-02-02T22:43:06.681Z,29.13
2018-02-02T22:45:33.017Z,26.37
2018-02-02T22:48:00.076Z,29.67
2018-02-02T22:50:27.100Z,31.00
2018-02-02T22:52:53.393Z,29.20
2018-02-02T22:55:19.744Z,30.90
2018-02-02T22:57:46.024Z,29.50
2018-02-02T23:00:12.320Z,29.73
2018-02-02T23:02:39.353Z,27.27
2018-02-02T23:05:05.658Z,32.67
2018-02-02T23:07:31.979Z,31.90
2018-02-02T23:09:58.259Z,31.90
2018-02-02T23:12:24.534Z,31.17
2018-02-02T23:14:50.817Z,28.07
2018-02-02T23:17:17.880Z,33.50
2018-02-02T23:19:44.895Z,30.20
2018-02-02T23:22:11.183Z,32.60
2018-02-02T23:24:37.444Z,36.60
2018-02-02T23:27:03.741Z,31.47
2018-02-02T23:29:30.021Z,35.10
2018-02-02T23:31:56.299Z,31.50
2018-02-02T23:34:22.574Z,32.20
2018-02-02T23:36:48.896Z,33.73
2018-02-02T23:39:15.179Z,33.60
2018-02-02T23:41:42.218Z,34.30
2018-02-02T23:44:09.238Z,34.57
2018-02-02T23:46:36.277Z,33.37
2018-02-02T23:49:02.559Z,36.27
2018-02-02T23:51:28.862Z,34.30
2018-02-02T23:53:55.878Z,34.90
2018-02-02T23:56:22.167Z,35.80
2018-02-02T23:58:48.447Z,34.13
